Time;durP1;ratioP1;P1;durP2;ratioP2;P2;SDS_P1;SDS_P2;PMS_P1;PMS_P2;Temp;Humidity;BMP_temperature;BMP_pressure;BME280_temperature;BME280_humidity;BME280_pressure;Samples;Min_cycle;Max_cycle;Signal;HPM_P1;HPM_P2
2023/04/06 00:01:00;;;;;;;3.40;2.43;;;;;-1.80;96976.00;;;;5088543;28;20453;-69
2023/04/06 00:03:49;;;;;;;4.27;2.83;;;;;-1.50;96972.00;;;;5086877;28;20826;-69
2023/04/06 00:06:38;;;;;;;4.70;2.77;;;;;-1.20;96972.00;;;;5085812;28;20454;-69
2023/04/06 00:09:27;;;;;;;3.50;2.30;;;;;-1.10;96972.00;;;;5067197;28;20420;-69
2023/04/06 00:12:17;;;;;;;3.83;2.87;;;;;-1.30;96963.00;;;;5069112;28;20427;-68
2023/04/06 00:15:07;;;;;;;19.30;3.77;;;;;-1.50;96972.00;;;;5085047;28;20953;-69
2023/04/06 00:17:57;;;;;;;3.40;2.53;;;;;-1.10;96967.00;;;;5076833;28;20590;-69
2023/04/06 00:20:46;;;;;;;3.27;2.50;;;;;-0.90;96961.00;;;;5086053;28;20456;-68
2023/04/06 00:23:35;;;;;;;3.13;2.50;;;;;-0.90;96968.00;;;;5077425;28;20470;-69
2023/04/06 00:26:24;;;;;;;5.70;3.20;;;;;-1.20;96958.00;;;;5079546;28;20488;-69
2023/04/06 00:29:16;;;;;;;2.30;2.10;;;;;-1.40;96947.00;;;;5084951;28;20429;-68
2023/04/06 00:32:05;;;;;;;5.27;2.63;;;;;-1.60;96947.00;;;;5087529;28;20472;-68
2023/04/06 00:34:54;;;;;;;2.83;2.63;;;;;-1.30;96947.00;;;;5079109;28;20425;-70
2023/04/06 00:37:43;;;;;;;4.70;2.70;;;;;-1.20;96944.00;;;;5086390;28;20441;-69
2023/04/06 00:40:34;;;;;;;7.17;3.90;;;;;-1.60;96944.00;;;;5076599;28;20540;-68
2023/04/06 00:43:24;;;;;;;4.20;2.90;;;;;-1.90;96932.00;;;;5082435;28;20426;-67
2023/04/06 00:46:14;;;;;;;3.43;2.93;;;;;-1.90;96939.00;;;;5089682;28;20466;-68
2023/04/06 00:49:03;;;;;;;3.43;3.13;;;;;-2.10;96932.00;;;;5085998;28;20451;-67
2023/04/06 00:51:53;;;;;;;7.80;2.67;;;;;-1.80;96949.00;;;;5091587;27;20453;-68
2023/04/06 00:54:42;;;;;;;4.20;3.00;;;;;-1.80;96938.00;;;;5091009;28;20971;-68
2023/04/06 00:57:31;;;;;;;4.57;2.50;;;;;-1.60;96940.00;;;;5089952;28;20469;-68
2023/04/06 01:00:20;;;;;;;2.30;2.17;;;;;-1.60;96943.00;;;;5090440;28;20461;-68
2023/04/06 01:03:11;;;;;;;5.20;2.20;;;;;-1.40;96936.00;;;;5081442;28;20928;-68
2023/04/06 01:06:00;;;;;;;3.23;2.97;;;;;-1.80;96924.00;;;;5089279;28;20445;-69
2023/04/06 01:08:49;;;;;;;1.87;1.77;;;;;-2.20;96921.00;;;;5091062;28;20444;-68
2023/04/06 01:11:38;;;;;;;2.57;2.27;;;;;-2.60;96921.00;;;;5091020;28;20449;-68
2023/04/06 01:14:28;;;;;;;2.67;2.47;;;;;-2.20;96928.00;;;;5090178;28;20440;-68
2023/04/06 01:17:17;;;;;;;5.73;3.27;;;;;-2.10;96926.00;;;;5088818;28;20510;-68
2023/04/06 01:20:08;;;;;;;5.57;2.93;;;;;-2.10;96919.00;;;;5088362;28;20469;-68
2023/04/06 01:22:59;;;;;;;4.37;2.97;;;;;-1.90;96930.00;;;;5084776;28;20425;-68
2023/04/06 01:25:48;;;;;;;4.53;3.53;;;;;-1.90;96921.00;;;;5086405;28;20430;-68
2023/04/06 01:28:38;;;;;;;4.37;2.87;;;;;-1.50;96924.00;;;;5086043;28;20467;-68
2023/04/06 01:31:27;;;;;;;2.60;2.20;;;;;-1.80;96928.00;;;;5081602;28;21037;-68
2023/04/06 01:34:16;;;;;;;3.23;2.93;;;;;-2.10;96917.00;;;;5078464;28;20448;-68
2023/04/06 01:37:05;;;;;;;1.17;1.17;;;;;-2.80;96910.00;;;;5080847;28;20433;-68
2023/04/06 01:39:55;;;;;;;2.67;2.17;;;;;-2.80;96901.00;;;;5090063;28;20480;-68
2023/04/06 01:42:45;;;;;;;3.17;2.87;;;;;-2.50;96912.00;;;;5089190;28;20421;-68
2023/04/06 01:45:34;;;;;;;2.57;2.20;;;;;-2.10;96918.00;;;;5085075;28;20424;-69
2023/04/06 01:48:23;;;;;;;4.73;2.60;;;;;-1.70;96914.00;;;;5087058;28;20454;-68
2023/04/06 01:51:12;;;;;;;4.57;2.73;;;;;-1.70;96921.00;;;;5086586;28;20446;-68
2023/04/06 01:54:01;;;;;;;2.57;2.37;;;;;-1.80;96919.00;;;;5084617;28;20440;-69
2023/04/06 01:56:52;;;;;;;2.83;2.57;;;;;-2.00;96906.00;;;;5090166;28;20835;-69
2023/04/06 01:59:41;;;;;;;6.20;2.30;;;;;-2.20;96909.00;;;;5088402;28;20461;-68
2023/04/06 02:02:30;;;;;;;2.50;2.30;;;;;-2.30;96906.00;;;;5089976;28;20421;-69
2023/04/06 02:05:20;;;;;;;2.70;2.43;;;;;-2.20;96907.00;;;;5083035;28;20429;-68
2023/04/06 02:08:09;;;;;;;8.13;2.63;;;;;-2.50;96907.00;;;;5080337;28;21168;-67
2023/04/06 02:10:58;;;;;;;2.47;2.37;;;;;-2.40;96911.00;;;;5089847;28;20539;-68
2023/04/06 02:13:48;;;;;;;3.77;3.40;;;;;-2.30;96908.00;;;;5089058;28;20937;-67
2023/04/06 02:16:38;;;;;;;2.63;2.37;;;;;-2.90;96916.00;;;;5087692;28;20510;-68
2023/04/06 02:19:27;;;;;;;7.03;2.10;;;;;-3.50;96901.00;;;;5087631;28;20845;-68
2023/04/06 02:22:16;;;;;;;1.83;1.67;;;;;-2.90;96918.00;;;;5089419;28;20464;-66
2023/04/06 02:25:05;;;;;;;4.30;3.17;;;;;-2.50;96906.00;;;;5085521;28;20425;-68
2023/04/06 02:27:54;;;;;;;4.80;2.03;;;;;-2.80;96900.00;;;;5082615;28;20779;-69
2023/04/06 02:30:45;;;;;;;1.93;1.83;;;;;-2.90;96902.00;;;;5088328;28;20562;-68
2023/04/06 02:33:34;;;;;;;4.20;3.33;;;;;-3.10;96896.00;;;;5088079;28;20456;-67
2023/04/06 02:36:23;;;;;;;8.50;3.57;;;;;-2.80;96899.00;;;;5089196;28;20434;-69
2023/04/06 02:39:12;;;;;;;3.60;2.90;;;;;-2.20;96906.00;;;;5082684;28;20478;-69
2023/04/06 02:42:01;;;;;;;6.43;3.20;;;;;-2.20;96912.00;;;;5088452;28;20456;-69
2023/04/06 02:44:50;;;;;;;4.70;2.90;;;;;-2.40;96899.00;;;;5083606;28;20473;-69
2023/04/06 02:47:41;;;;;;;5.80;3.80;;;;;-2.70;96888.00;;;;5087026;28;20507;-68
2023/04/06 02:50:30;;;;;;;4.40;3.73;;;;;-2.70;96898.00;;;;5090128;28;20442;-69
2023/04/06 02:53:19;;;;;;;13.93;4.43;;;;;-2.70;96891.00;;;;5089959;28;20457;-69
2023/04/06 02:56:08;;;;;;;9.83;3.43;;;;;-2.40;96894.00;;;;5082541;28;20947;-69
2023/04/06 02:58:57;;;;;;;8.87;3.37;;;;;-2.50;96895.00;;;;5082004;28;20457;-69
2023/04/06 03:01:46;;;;;;;2.73;2.30;;;;;-2.60;96893.00;;;;5087860;28;20458;-69
2023/04/06 03:04:36;;;;;;;3.23;2.70;;;;;-2.80;96885.00;;;;5080246;28;20805;-69
2023/04/06 03:07:25;;;;;;;3.73;3.17;;;;;-2.80;96889.00;;;;5081187;28;20429;-69
2023/04/06 03:10:14;;;;;;;3.47;2.90;;;;;-2.60;96890.00;;;;5085808;28;20450;-69
2023/04/06 03:13:04;;;;;;;9.17;3.07;;;;;-2.90;96882.00;;;;5075116;28;20433;-69
2023/04/06 03:15:53;;;;;;;5.20;3.23;;;;;-2.70;96883.00;;;;5081454;28;20975;-69
2023/04/06 03:18:44;;;;;;;8.13;3.53;;;;;-2.90;96888.00;;;;5086241;28;20437;-69
2023/04/06 03:21:34;;;;;;;5.37;3.63;;;;;-2.90;96878.00;;;;5087403;28;21146;-70
2023/04/06 03:24:23;;;;;;;6.33;3.20;;;;;-2.90;96884.00;;;;5086522;28;20503;-69
2023/04/06 03:27:12;;;;;;;4.60;3.43;;;;;-2.80;96886.00;;;;5088169;28;20422;-69
2023/04/06 03:30:02;;;;;;;7.27;4.57;;;;;-2.70;96891.00;;;;5083705;28;20537;-70
2023/04/06 03:32:51;;;;;;;4.07;3.17;;;;;-2.60;96902.00;;;;5087433;28;20421;-69
2023/04/06 03:35:40;;;;;;;5.20;2.77;;;;;-2.50;96904.00;;;;5087011;28;20418;-69
2023/04/06 03:38:31;;;;;;;5.07;2.97;;;;;-2.70;96895.00;;;;5077777;28;20436;-69
2023/04/06 03:41:20;;;;;;;3.70;3.20;;;;;-3.00;96897.00;;;;5077355;28;20556;-69
2023/04/06 03:44:09;;;;;;;2.87;2.63;;;;;-3.00;96900.00;;;;5084089;28;20426;-69
2023/04/06 03:46:59;;;;;;;6.23;3.50;;;;;-3.20;96887.00;;;;5083779;28;20480;-70
2023/04/06 03:49:48;;;;;;;7.93;2.80;;;;;-3.50;96895.00;;;;5087977;28;20425;-69
2023/04/06 03:52:37;;;;;;;4.20;2.47;;;;;-3.50;96891.00;;;;5087322;28;20483;-69
2023/04/06 03:55:27;;;;;;;3.37;2.83;;;;;-2.90;96900.00;;;;5086994;28;20440;-70
2023/04/06 03:58:16;;;;;;;3.37;3.07;;;;;-2.50;96915.00;;;;5083994;28;20976;-71
2023/04/06 04:01:09;;;;;;;3.17;2.60;;;;;-2.80;96911.00;;;;5081081;28;20490;-70
2023/04/06 04:03:59;;;;;;;3.60;2.13;;;;;-3.30;96903.00;;;;5090596;28;21137;-69
2023/04/06 04:06:48;;;;;;;5.13;3.20;;;;;-3.70;96893.00;;;;5086269;28;20417;-70
2023/04/06 04:09:37;;;;;;;3.73;3.23;;;;;-3.20;96894.00;;;;5085751;28;20471;-69
2023/04/06 04:12:28;;;;;;;5.17;2.97;;;;;-3.30;96893.00;;;;5085408;28;20841;-69
2023/04/06 04:15:17;;;;;;;7.27;3.47;;;;;-2.90;96912.00;;;;5083197;28;20437;-69
2023/04/06 04:18:06;;;;;;;4.47;2.57;;;;;-2.90;96906.00;;;;5077899;28;20422;-69
2023/04/06 04:20:55;;;;;;;7.93;4.67;;;;;-2.90;96903.00;;;;5090284;28;20484;-69
2023/04/06 04:23:44;;;;;;;5.87;4.13;;;;;-3.40;96899.00;;;;5088058;28;20421;-69
2023/04/06 04:26:33;;;;;;;5.23;3.47;;;;;-3.10;96905.00;;;;5082214;28;20457;-70
2023/04/06 04:29:24;;;;;;;6.67;3.53;;;;;-3.00;96918.00;;;;5085300;28;20988;-70
2023/04/06 04:32:13;;;;;;;3.53;2.77;;;;;-2.80;96907.00;;;;5081165;28;20449;-69
2023/04/06 04:35:02;;;;;;;3.97;2.63;;;;;-2.90;96904.00;;;;5083428;28;20956;-70
2023/04/06 04:37:51;;;;;;;4.00;2.83;;;;;-3.10;96916.00;;;;5090867;28;21055;-69
2023/04/06 04:40:40;;;;;;;5.07;3.27;;;;;-3.20;96913.00;;;;5086963;28;20552;-69
2023/04/06 04:43:29;;;;;;;3.27;2.10;;;;;-3.20;96915.00;;;;5084367;28;20970;-69
2023/04/06 04:46:21;;;;;;;5.33;3.70;;;;;-3.00;96922.00;;;;5087765;28;20437;-69
2023/04/06 04:49:10;;;;;;;4.57;3.90;;;;;-3.00;96919.00;;;;5081958;28;20417;-69
2023/04/06 04:51:59;;;;;;;4.40;3.40;;;;;-3.00;96926.00;;;;5082666;28;20523;-69
2023/04/06 04:54:48;;;;;;;3.83;3.00;;;;;-2.90;96925.00;;;;5085313;28;20426;-69
2023/04/06 04:57:37;;;;;;;4.83;2.97;;;;;-2.80;96932.00;;;;5090745;28;20968;-69
2023/04/06 05:00:26;;;;;;;3.40;2.90;;;;;-2.80;96926.00;;;;5088219;28;20858;-69
2023/04/06 05:03:21;;;;;;;2.03;1.93;;;;;-3.80;96919.00;;;;5082565;28;20434;-69
2023/04/06 05:06:10;;;;;;;3.97;3.00;;;;;-3.70;96932.00;;;;5082606;28;20430;-69
2023/04/06 05:09:00;;;;;;;3.87;2.67;;;;;-3.70;96926.00;;;;5081942;28;20437;-70
2023/04/06 05:11:49;;;;;;;3.63;2.30;;;;;-3.10;96923.00;;;;5087629;28;20453;-70
2023/04/06 05:14:38;;;;;;;2.43;1.43;;;;;-3.40;96906.00;;;;5085896;28;20505;-69
2023/04/06 05:17:27;;;;;;;4.87;3.27;;;;;-3.50;96916.00;;;;5089159;28;20437;-69
2023/04/06 05:20:18;;;;;;;3.90;3.50;;;;;-3.30;96912.00;;;;5087824;28;20453;-70
2023/04/06 05:23:07;;;;;;;7.47;2.80;;;;;-2.90;96909.00;;;;5087262;28;20429;-69
2023/04/06 05:25:56;;;;;;;9.07;3.60;;;;;-2.40;96914.00;;;;5084904;28;21210;-68
2023/04/06 05:28:45;;;;;;;4.13;3.77;;;;;-1.90;96919.00;;;;5089753;28;20455;-69
2023/04/06 05:31:34;;;;;;;3.77;3.40;;;;;-1.80;96928.00;;;;5085584;28;20865;-69
2023/04/06 05:34:24;;;;;;;4.80;2.80;;;;;-1.50;96918.00;;;;5083492;28;20480;-69
2023/04/06 05:37:14;;;;;;;7.87;3.43;;;;;-1.50;96920.00;;;;5080416;28;21500;-69
2023/04/06 05:40:04;;;;;;;17.90;4.93;;;;;-1.60;96907.00;;;;5086009;28;20421;-69
2023/04/06 05:42:53;;;;;;;4.03;3.37;;;;;-1.80;96916.00;;;;5089096;28;20449;-70
2023/04/06 05:45:42;;;;;;;8.37;3.10;;;;;-1.80;96913.00;;;;5087744;28;20427;-70
2023/04/06 05:48:31;;;;;;;3.70;3.13;;;;;-1.80;96911.00;;;;5081321;28;20479;-70
2023/04/06 05:51:20;;;;;;;4.87;2.50;;;;;-1.60;96908.00;;;;5081934;28;20442;-69
2023/04/06 05:54:10;;;;;;;5.20;3.30;;;;;-1.20;96920.00;;;;5085552;28;20463;-69
2023/04/06 05:56:59;;;;;;;9.57;3.23;;;;;-1.40;96911.00;;;;5084214;28;20480;-67
2023/04/06 05:59:48;;;;;;;4.83;3.10;;;;;-2.00;96914.00;;;;5086005;28;20475;-67
2023/04/06 06:02:39;;;;;;;8.73;3.40;;;;;-1.50;96908.00;;;;5078617;28;20461;-69
2023/04/06 06:05:28;;;;;;;4.60;2.50;;;;;-1.20;96916.00;;;;5077552;28;20434;-71
2023/04/06 06:08:17;;;;;;;6.87;3.43;;;;;-1.50;96900.00;;;;5082738;28;20462;-68
2023/04/06 06:11:07;;;;;;;4.73;2.60;;;;;-1.50;96898.00;;;;5084024;28;20464;-68
2023/04/06 06:13:56;;;;;;;3.07;2.27;;;;;-1.40;96902.00;;;;5084356;28;20490;-70
2023/04/06 06:16:45;;;;;;;11.10;7.43;;;;;-0.70;96898.00;;;;5083423;28;20438;-69
2023/04/06 06:19:34;;;;;;;5.47;3.17;;;;;-0.90;96899.00;;;;5078431;28;20441;-71
2023/04/06 06:22:24;;;;;;;5.70;3.00;;;;;-0.40;96903.00;;;;5087980;28;20464;-70
2023/04/06 06:25:13;;;;;;;9.70;3.00;;;;;-0.60;96902.00;;;;5074963;28;20472;-70
2023/04/06 06:28:03;;;;;;;7.07;3.17;;;;;-0.20;96895.00;;;;5088049;28;20460;-71
2023/04/06 06:30:55;;;;;;;8.17;3.73;;;;;0.20;96906.00;;;;5079183;28;20450;-69
2023/04/06 06:33:44;;;;;;;4.23;2.70;;;;;0.50;96904.00;;;;5083457;28;20955;-70
2023/04/06 06:36:35;;;;;;;1.87;1.77;;;;;0.20;96892.00;;;;5085749;28;20869;-71
2023/04/06 06:39:24;;;;;;;3.17;2.83;;;;;0.30;96892.00;;;;5084187;28;20423;-70
2023/04/06 06:42:13;;;;;;;7.50;3.27;;;;;0.20;96901.00;;;;5085550;28;20469;-70
2023/04/06 06:45:04;;;;;;;3.63;2.40;;;;;0.30;96891.00;;;;5087921;28;20437;-71
2023/04/06 06:47:53;;;;;;;4.50;3.30;;;;;0.20;96889.00;;;;5080712;28;20483;-70
2023/04/06 06:50:43;;;;;;;3.53;3.10;;;;;0.60;96892.00;;;;5084350;28;20456;-70
2023/04/06 06:53:32;;;;;;;4.27;3.30;;;;;1.00;96891.00;;;;5085939;28;20543;-72
2023/04/06 06:56:21;;;;;;;5.27;3.40;;;;;0.80;96886.00;;;;5075253;28;20422;-69
2023/04/06 06:59:10;;;;;;;7.43;4.13;;;;;1.50;96902.00;;;;5081063;28;20480;-69
2023/04/06 07:02:01;;;;;;;5.33;3.63;;;;;1.80;96893.00;;;;5079831;28;20472;-71
2023/04/06 07:04:50;;;;;;;6.20;4.63;;;;;2.10;96896.00;;;;5083119;28;20448;-71
2023/04/06 07:07:39;;;;;;;6.97;3.73;;;;;2.40;96898.00;;;;5079717;28;21132;-71
2023/04/06 07:10:29;;;;;;;12.93;4.50;;;;;2.50;96891.00;;;;5080424;28;20514;-71
2023/04/06 07:13:21;;;;;;;5.27;4.33;;;;;2.80;96898.00;;;;5083968;28;20438;-71
2023/04/06 07:16:10;;;;;;;7.37;3.43;;;;;2.80;96891.00;;;;5079137;28;20945;-70
2023/04/06 07:19:01;;;;;;;9.20;4.03;;;;;3.60;96890.00;;;;5083053;28;20430;-71
2023/04/06 07:21:50;;;;;;;6.80;3.93;;;;;4.30;96899.00;;;;5083429;28;20583;-72
2023/04/06 07:24:39;;;;;;;7.43;3.20;;;;;4.60;96906.00;;;;5082206;28;20455;-71
2023/04/06 07:27:28;;;;;;;6.20;3.90;;;;;4.70;96892.00;;;;5087012;28;20516;-71
2023/04/06 07:30:18;;;;;;;8.93;4.23;;;;;5.20;96900.00;;;;5076001;28;20841;-71
2023/04/06 07:33:07;;;;;;;7.47;4.20;;;;;5.50;96897.00;;;;5082165;28;20429;-71
2023/04/06 07:35:58;;;;;;;8.60;3.97;;;;;5.80;96898.00;;;;5084170;28;20435;-71
2023/04/06 07:38:48;;;;;;;5.13;4.63;;;;;6.00;96900.00;;;;5085258;28;20429;-71
2023/04/06 07:41:37;;;;;;;10.60;4.20;;;;;6.20;96904.00;;;;5082591;28;20473;-71
2023/04/06 07:44:26;;;;;;;5.70;3.67;;;;;6.40;96906.00;;;;5081151;28;20474;-71
2023/04/06 07:47:15;;;;;;;8.63;4.10;;;;;6.80;96909.00;;;;5085041;28;20913;-71
2023/04/06 07:50:05;;;;;;;3.90;2.73;;;;;7.00;96916.00;;;;5083128;28;20207;-71
2023/04/06 07:52:56;;;;;;;7.67;4.23;;;;;7.10;96894.00;;;;5084962;28;20429;-72
2023/04/06 07:55:45;;;;;;;7.03;3.67;;;;;7.30;96898.00;;;;5088957;28;20237;-70
2023/04/06 07:58:34;;;;;;;5.50;3.23;;;;;7.00;96887.00;;;;5083836;28;20206;-67
2023/04/06 08:01:23;;;;;;;8.73;4.03;;;;;7.40;96881.00;;;;5081183;28;20224;-69
2023/04/06 08:04:12;;;;;;;5.23;3.17;;;;;7.50;96873.00;;;;5088261;28;20890;-72
2023/04/06 08:07:01;;;;;;;5.37;2.87;;;;;7.70;96887.00;;;;5088159;28;20202;-68
2023/04/06 08:09:52;;;;;;;6.80;3.37;;;;;8.00;96869.00;;;;5086508;28;20220;-70
2023/04/06 08:12:41;;;;;;;4.17;3.10;;;;;8.00;96872.00;;;;5091308;28;20199;-67
2023/04/06 08:15:30;;;;;;;3.27;2.97;;;;;8.30;96871.00;;;;5092117;28;20666;-67
2023/04/06 08:18:19;;;;;;;8.53;2.63;;;;;8.70;96879.00;;;;5084263;28;20206;-67
2023/04/06 08:21:08;;;;;;;4.63;3.43;;;;;8.80;96872.00;;;;5081606;28;20252;-68
2023/04/06 08:23:57;;;;;;;4.80;3.30;;;;;8.70;96859.00;;;;5085717;28;20234;-72
2023/04/06 08:26:48;;;;;;;4.30;3.00;;;;;8.50;96853.00;;;;5085237;28;20208;-65
2023/04/06 08:29:37;;;;;;;4.70;2.30;;;;;8.60;96855.00;;;;5084743;28;20207;-68
2023/04/06 08:32:27;;;;;;;4.13;2.00;;;;;8.80;96849.00;;;;5087394;28;20272;-67
2023/04/06 08:35:16;;;;;;;3.93;2.40;;;;;9.10;96859.00;;;;5072066;28;20207;-71
2023/04/06 08:38:06;;;;;;;3.97;2.80;;;;;9.10;96837.00;;;;5084019;28;20252;-68
2023/04/06 08:40:55;;;;;;;2.90;2.60;;;;;9.80;96856.00;;;;5087227;28;20605;-70
2023/04/06 08:43:48;;;;;;;7.03;2.53;;;;;10.00;96837.00;;;;5087393;28;20230;-71
2023/04/06 08:46:38;;;;;;;7.63;2.80;;;;;9.60;96838.00;;;;5080936;28;20268;-69
2023/04/06 08:49:27;;;;;;;3.73;2.67;;;;;9.40;96834.00;;;;5083629;28;20217;-66
2023/04/06 08:52:16;;;;;;;4.23;2.63;;;;;10.10;96842.00;;;;5084918;28;20244;-69
2023/04/06 08:55:07;;;;;;;3.00;2.80;;;;;10.20;96832.00;;;;5086599;28;20235;-70
2023/04/06 08:57:56;;;;;;;4.03;2.40;;;;;10.10;96830.00;;;;5085609;28;20222;-69
2023/04/06 09:00:47;;;;;;;4.33;3.27;;;;;10.30;96838.00;;;;5084374;28;20222;-68
2023/04/06 09:03:39;;;;;;;3.40;3.03;;;;;10.80;96831.00;;;;5084003;28;20640;-70
2023/04/06 09:06:29;;;;;;;3.73;2.57;;;;;10.50;96820.00;;;;5079805;28;20829;-72
2023/04/06 09:09:18;;;;;;;5.43;2.13;;;;;10.60;96830.00;;;;5074558;28;20288;-70
2023/04/06 09:12:09;;;;;;;2.80;2.47;;;;;10.50;96824.00;;;;5086781;28;20411;-64
2023/04/06 09:14:59;;;;;;;3.67;2.17;;;;;11.00;96816.00;;;;5090736;28;20199;-65
2023/04/06 09:17:51;;;;;;;3.10;2.17;;;;;11.00;96817.00;;;;5090122;28;20199;-68
2023/04/06 09:20:40;;;;;;;2.40;2.23;;;;;11.20;96813.00;;;;5083290;28;20230;-68
2023/04/06 09:23:29;;;;;;;4.13;2.43;;;;;11.60;96804.00;;;;5084573;28;20223;-70
2023/04/06 09:26:19;;;;;;;3.97;2.47;;;;;11.70;96818.00;;;;5085029;28;20219;-71
2023/04/06 09:29:09;;;;;;;3.03;2.17;;;;;11.60;96804.00;;;;5080288;28;20211;-72
2023/04/06 09:32:04;;;;;;;2.50;2.30;;;;;11.90;96798.00;;;;5081752;28;20285;-73
2023/04/06 09:34:55;;;;;;;4.00;2.07;;;;;11.90;96802.00;;;;5080331;28;20211;-70
2023/04/06 09:37:44;;;;;;;2.83;2.37;;;;;11.80;96801.00;;;;5083383;28;20204;-72
2023/04/06 09:40:33;;;;;;;4.20;2.37;;;;;11.70;96779.00;;;;5082659;28;20219;-73
2023/04/06 09:43:26;;;;;;;4.87;2.07;;;;;12.30;96781.00;;;;5081240;28;20276;-71
2023/04/06 09:46:15;;;;;;;16.23;9.13;;;;;12.10;96781.00;;;;5084765;28;20729;-72
2023/04/06 09:49:05;;;;;;;4.37;2.70;;;;;12.60;96777.00;;;;5083857;28;20210;-73
2023/04/06 09:51:59;;;;;;;2.23;2.03;;;;;12.30;96774.00;;;;5097287;28;20225;-73
2023/04/06 09:54:51;;;;;;;4.40;2.40;;;;;13.20;96780.00;;;;5085097;28;20235;-70
2023/04/06 09:57:46;;;;;;;3.20;2.77;;;;;13.60;96769.00;;;;5085648;28;20203;-69
2023/04/06 10:00:44;;;;;;;4.40;2.17;;;;;13.20;96766.00;;;;5085864;28;20215;-71
2023/04/06 10:03:38;;;;;;;3.03;1.60;;;;;13.70;96770.00;;;;5089930;28;20219;-69
2023/04/06 10:06:29;;;;;;;2.40;1.80;;;;;14.20;96759.00;;;;5089217;28;20296;-70
2023/04/06 10:09:21;;;;;;;3.07;2.10;;;;;13.60;96752.00;;;;5086616;28;20203;-67
2023/04/06 10:12:11;;;;;;;3.60;1.50;;;;;13.30;96753.00;;;;5085507;28;20722;-69
2023/04/06 10:15:00;;;;;;;3.80;2.03;;;;;11.80;96777.00;;;;5085307;28;20241;-71
2023/04/06 10:17:49;;;;;;;2.43;1.73;;;;;13.00;96773.00;;;;5087040;28;20195;-68
2023/04/06 10:20:43;;;;;;;1.60;1.50;;;;;12.20;96744.00;;;;5086619;28;20231;-67
2023/04/06 10:23:34;;;;;;;1.50;1.37;;;;;11.00;96745.00;;;;5084942;28;20285;-71
2023/04/06 10:26:25;;;;;;;1.57;1.40;;;;;12.60;96753.00;;;;5080423;28;20203;-66
2023/04/06 10:29:14;;;;;;;1.60;1.40;;;;;13.40;96762.00;;;;5082159;28;20207;-64
2023/04/06 10:32:03;;;;;;;1.90;1.60;;;;;13.80;96751.00;;;;5079307;28;20223;-66
2023/04/06 10:34:52;;;;;;;1.50;1.37;;;;;14.40;96748.00;;;;5085016;28;20211;-68
2023/04/06 10:37:53;;;;;;;1.37;1.27;;;;;14.20;96747.00;;;;5085844;28;20195;-66
2023/04/06 10:40:44;;;;;;;3.47;1.30;;;;;14.80;96735.00;;;;5078893;28;20265;-67
2023/04/06 10:43:37;;;;;;;1.60;1.40;;;;;15.40;96733.00;;;;5081904;28;20265;-66
2023/04/06 10:46:30;;;;;;;2.13;1.50;;;;;14.90;96733.00;;;;5082553;28;20199;-68
2023/04/06 10:49:19;;;;;;;1.43;1.20;;;;;14.60;96730.00;;;;5079808;28;20208;-70
2023/04/06 10:52:08;;;;;;;1.50;1.40;;;;;12.60;96718.00;;;;5081321;28;20344;-71
2023/04/06 10:54:57;;;;;;;3.70;1.30;;;;;12.90;96706.00;;;;5088814;28;20269;-69
2023/04/06 10:57:48;;;;;;;3.13;1.60;;;;;15.30;96713.00;;;;5082889;28;20214;-68
2023/04/06 11:00:45;;;;;;;1.70;1.57;;;;;13.90;96710.00;;;;5081981;28;20220;-72
2023/04/06 11:03:45;;;;;;;1.50;1.40;;;;;13.60;96705.00;;;;5092145;28;20601;-70
2023/04/06 11:06:34;;;;;;;2.47;1.20;;;;;14.20;96711.00;;;;5077655;28;20196;-67
2023/04/06 11:09:27;;;;;;;1.50;1.20;;;;;13.70;96707.00;;;;5077225;28;20326;-71
2023/04/06 11:12:22;;;;;;;2.53;1.50;;;;;13.40;96686.00;;;;5075476;28;20645;-72
2023/04/06 11:15:12;;;;;;;2.57;1.30;;;;;14.70;96705.00;;;;5084077;28;20244;-67
2023/04/06 11:18:05;;;;;;;1.63;1.37;;;;;13.70;96699.00;;;;5079155;28;20204;-64
2023/04/06 11:20:54;;;;;;;1.67;1.43;;;;;14.70;96689.00;;;;5079249;28;20223;-66
2023/04/06 11:23:43;;;;;;;3.80;1.67;;;;;14.40;96691.00;;;;5081341;28;20336;-72
2023/04/06 11:26:32;;;;;;;2.90;1.47;;;;;14.00;96706.00;;;;5080924;28;20265;-67
2023/04/06 11:29:22;;;;;;;1.73;1.50;;;;;15.70;96694.00;;;;5080637;28;20206;-64
2023/04/06 11:32:12;;;;;;;1.93;1.30;;;;;16.00;96679.00;;;;5084942;28;20357;-64
2023/04/06 11:35:02;;;;;;;1.17;1.07;;;;;15.20;96681.00;;;;5079423;28;20199;-64
2023/04/06 11:37:51;;;;;;;3.00;1.40;;;;;15.40;96688.00;;;;5087636;28;20235;-66
2023/04/06 11:40:40;;;;;;;1.80;1.47;;;;;16.50;96687.00;;;;5086475;28;20268;-66
2023/04/06 11:43:30;;;;;;;2.17;1.30;;;;;16.70;96698.00;;;;5084484;28;20296;-70
2023/04/06 11:46:20;;;;;;;5.17;1.60;;;;;16.60;96680.00;;;;5083676;28;20717;-67
2023/04/06 11:49:09;;;;;;;1.03;1.00;;;;;16.60;96682.00;;;;5084160;28;20443;-68
2023/04/06 11:52:00;;;;;;;3.27;1.47;;;;;16.20;96668.00;;;;5081576;28;20219;-67
2023/04/06 11:54:51;;;;;;;2.57;1.63;;;;;16.60;96673.00;;;;5084586;28;20199;-66
2023/04/06 11:57:40;;;;;;;1.70;1.60;;;;;16.00;96652.00;;;;5075905;28;20264;-69
2023/04/06 12:00:34;;;;;;;1.57;1.47;;;;;16.80;96685.00;;;;5080011;28;20284;-66
2023/04/06 12:03:23;;;;;;;1.57;1.27;;;;;17.80;96652.00;;;;5066220;28;20956;-67
2023/04/06 12:06:12;;;;;;;2.37;1.33;;;;;18.70;96663.00;;;;5077249;28;20202;-67
2023/04/06 12:09:03;;;;;;;3.17;1.40;;;;;18.70;96662.00;;;;5074259;28;20239;-68
2023/04/06 12:11:52;;;;;;;1.43;1.33;;;;;15.40;96643.00;;;;5087531;28;20285;-70
2023/04/06 12:14:41;;;;;;;1.90;1.80;;;;;17.10;96649.00;;;;5080360;28;20229;-72
2023/04/06 12:17:30;;;;;;;2.50;1.57;;;;;16.80;96638.00;;;;5076512;28;20263;-66
2023/04/06 12:20:19;;;;;;;1.27;0.90;;;;;19.50;96639.00;;;;5085442;28;20219;-68
2023/04/06 12:23:13;;;;;;;2.37;1.40;;;;;19.50;96643.00;;;;5084388;28;20682;-71
2023/04/06 12:26:04;;;;;;;1.87;0.90;;;;;18.70;96634.00;;;;5086734;28;20207;-68
2023/04/06 12:28:53;;;;;;;1.40;1.30;;;;;18.50;96645.00;;;;5085061;28;20208;-69
2023/04/06 12:31:44;;;;;;;1.57;1.43;;;;;17.70;96615.00;;;;5088474;28;20223;-66
2023/04/06 12:34:33;;;;;;;3.23;1.70;;;;;18.30;96628.00;;;;5085560;28;20211;-65
2023/04/06 12:37:23;;;;;;;2.53;1.37;;;;;15.50;96610.00;;;;5087162;28;20675;-69
2023/04/06 12:40:14;;;;;;;1.60;1.20;;;;;14.60;96609.00;;;;5090245;28;20328;-73
2023/04/06 12:43:05;;;;;;;2.77;1.13;;;;;16.10;96606.00;;;;5090303;28;20203;-67
2023/04/06 12:45:54;;;;;;;1.30;1.20;;;;;17.00;96613.00;;;;5090104;28;20231;-68
2023/04/06 12:48:43;;;;;;;2.43;1.60;;;;;17.50;96611.00;;;;5089852;28;20203;-66
2023/04/06 12:51:32;;;;;;;5.63;1.53;;;;;19.50;96619.00;;;;5086948;28;20226;-66
2023/04/06 12:54:21;;;;;;;1.57;1.23;;;;;18.10;96612.00;;;;5083495;28;20594;-70
2023/04/06 12:57:10;;;;;;;4.37;1.40;;;;;20.60;96614.00;;;;5088139;28;20248;-67
2023/04/06 13:00:00;;;;;;;1.27;0.90;;;;;21.00;96618.00;;;;5087093;28;20230;-68
2023/04/06 13:02:50;;;;;;;7.63;4.47;;;;;21.20;96614.00;;;;5089594;28;20300;-69
2023/04/06 13:05:45;;;;;;;2.03;1.80;;;;;22.40;96616.00;;;;5090773;28;20218;-68
2023/04/06 13:08:34;;;;;;;2.27;1.70;;;;;21.70;96610.00;;;;5084392;28;20203;-68
2023/04/06 13:11:24;;;;;;;1.57;1.23;;;;;20.90;96601.00;;;;5083603;28;20984;-73
2023/04/06 13:14:15;;;;;;;4.20;1.43;;;;;17.80;96602.00;;;;5086429;28;20211;-70
2023/04/06 13:17:06;;;;;;;2.87;1.40;;;;;20.20;96612.00;;;;5084320;28;20211;-68
2023/04/06 13:19:55;;;;;;;2.87;1.33;;;;;22.10;96621.00;;;;5090846;28;20203;-67
2023/04/06 13:22:44;;;;;;;4.40;3.00;;;;;21.70;96612.00;;;;5085456;28;20678;-66
2023/04/06 13:25:34;;;;;;;2.40;2.00;;;;;22.00;96613.00;;;;5086956;28;20199;-69
2023/04/06 13:28:23;;;;;;;1.20;1.10;;;;;18.40;96590.00;;;;5084463;28;20199;-68
2023/04/06 13:31:12;;;;;;;1.30;1.20;;;;;20.90;96602.00;;;;5078251;28;20720;-71
2023/04/06 13:34:03;;;;;;;1.93;1.30;;;;;20.10;96596.00;;;;5082957;28;20195;-68
2023/04/06 13:36:52;;;;;;;3.43;1.70;;;;;21.60;96602.00;;;;5090418;28;20261;-65
2023/04/06 13:39:42;;;;;;;2.33;1.30;;;;;20.00;96597.00;;;;5089863;28;20214;-71
2023/04/06 13:42:31;;;;;;;1.50;1.00;;;;;21.30;96598.00;;;;5085772;28;20223;-67
2023/04/06 13:45:20;;;;;;;1.20;1.00;;;;;21.00;96611.00;;;;5082258;28;20344;-64
2023/04/06 13:48:09;;;;;;;1.97;0.90;;;;;19.80;96611.00;;;;5076680;28;20241;-67
2023/04/06 13:51:08;;;;;;;1.50;0.93;;;;;18.10;96592.00;;;;5084769;28;20219;-64
2023/04/06 13:53:57;;;;;;;0.87;0.87;;;;;20.40;96594.00;;;;5085999;28;20207;-67
2023/04/06 13:56:46;;;;;;;3.50;0.97;;;;;20.10;96569.00;;;;5084401;28;20574;-73
2023/04/06 13:59:35;;;;;;;1.27;1.10;;;;;22.30;96600.00;;;;5083020;28;20200;-64
2023/04/06 14:02:26;;;;;;;2.13;1.33;;;;;21.50;96601.00;;;;5075652;28;20426;-73
2023/04/06 14:05:17;;;;;;;1.33;1.20;;;;;20.10;96600.00;;;;5081776;28;20207;-71
2023/04/06 14:08:07;;;;;;;1.00;1.00;;;;;19.80;96588.00;;;;5081343;28;20196;-73
2023/04/06 14:10:56;;;;;;;0.90;0.77;;;;;20.70;96594.00;;;;5080243;28;20562;-69